createdAt,value
2023-05-20T00:01:52.204Z,14.05
2023-05-20T00:04:19.587Z,13.57
2023-05-20T00:06:46.499Z,14.95
2023-05-20T00:09:13.562Z,13.30
2023-05-20T00:11:40.425Z,11.23
2023-05-20T00:14:07.179Z,10.80
2023-05-20T00:16:33.998Z,11.00
2023-05-20T00:19:00.953Z,10.40
2023-05-20T00:21:27.795Z,10.73
2023-05-20T00:23:54.525Z,10.93
2023-05-20T00:26:21.473Z,12.70
2023-05-20T00:28:53.803Z,13.25
2023-05-20T00:31:20.532Z,15.60
2023-05-20T00:33:47.326Z,13.48
2023-05-20T00:36:14.171Z,10.57
2023-05-20T00:38:40.898Z,16.52
2023-05-20T00:41:07.638Z,14.30
2023-05-20T00:43:34.451Z,12.88
2023-05-20T00:46:01.984Z,15.07
2023-05-20T00:48:40.032Z,17.90
2023-05-20T00:51:07.768Z,17.70
2023-05-20T00:53:35.967Z,11.65
2023-05-20T00:56:04.450Z,12.20
2023-05-20T00:58:32.060Z,13.88
2023-05-20T01:00:58.890Z,14.68
2023-05-20T01:03:26.307Z,12.60
2023-05-20T01:05:53.164Z,13.85
2023-05-20T01:08:20.093Z,11.70
2023-05-20T01:10:51.546Z,12.25
2023-05-20T01:13:24.372Z,13.55
2023-05-20T01:15:53.995Z,9.73
2023-05-20T01:18:21.017Z,12.15
2023-05-20T01:20:50.211Z,11.63
2023-05-20T01:23:17.347Z,12.40
2023-05-20T01:25:44.263Z,12.85
2023-05-20T01:28:17.681Z,13.55
2023-05-20T01:30:50.949Z,13.35
2023-05-20T01:33:22.000Z,12.25
2023-05-20T01:35:49.081Z,12.07
2023-05-20T01:38:19.332Z,10.63
2023-05-20T01:40:47.752Z,10.82
2023-05-20T01:43:17.397Z,12.13
2023-05-20T01:45:45.219Z,11.48
2023-05-20T01:50:39.372Z,11.88
2023-05-20T01:53:08.336Z,12.07
2023-05-20T01:55:35.919Z,12.45
2023-05-20T01:58:03.394Z,10.75
2023-05-20T02:00:34.130Z,12.57
2023-05-20T02:03:03.762Z,13.65
2023-05-20T02:05:30.980Z,12.40
2023-05-20T02:07:58.226Z,13.50
2023-05-20T02:10:25.068Z,14.98
2023-05-20T02:12:51.954Z,17.20
2023-05-20T02:15:18.771Z,15.73
2023-05-20T02:17:47.081Z,12.43
2023-05-20T02:20:14.678Z,10.48
2023-05-20T02:22:41.411Z,14.57
2023-05-20T02:25:10.536Z,14.40
2023-05-20T02:30:04.286Z,13.20
2023-05-20T02:34:57.640Z,18.10
2023-05-20T02:37:26.076Z,19.02
2023-05-20T02:39:55.757Z,14.48
2023-05-20T02:42:22.500Z,14.73
2023-05-20T02:44:49.736Z,15.73
2023-05-20T02:47:16.520Z,17.48
2023-05-20T02:49:43.438Z,15.20
2023-05-20T02:52:10.401Z,14.65
2023-05-20T02:54:37.225Z,13.95
2023-05-20T02:57:04.178Z,18.05
2023-05-20T03:01:58.062Z,15.25
2023-05-20T03:04:26.319Z,13.02
2023-05-20T03:06:53.894Z,15.02
2023-05-20T03:09:22.567Z,15.80
2023-05-20T03:11:49.929Z,15.27
2023-05-20T03:14:16.918Z,14.98
2023-05-20T03:16:44.177Z,15.40
2023-05-20T03:19:11.052Z,14.68
2023-05-20T03:21:37.989Z,18.02
2023-05-20T03:24:05.218Z,22.20
2023-05-20T03:26:33.977Z,19.00
2023-05-20T03:29:00.708Z,21.17
2023-05-20T03:31:27.662Z,17.23
2023-05-20T03:33:54.437Z,18.42
2023-05-20T03:36:21.698Z,18.75
2023-05-20T03:41:15.682Z,13.07
2023-05-20T03:46:09.195Z,15.90
2023-05-20T03:48:36.256Z,20.55
2023-05-20T03:51:04.284Z,14.65
2023-05-20T03:53:31.726Z,19.20
2023-05-20T03:55:58.567Z,21.45
2023-05-20T03:58:26.363Z,15.88
2023-05-20T04:00:53.233Z,15.70
2023-05-20T04:03:20.574Z,16.25
2023-05-20T04:05:48.921Z,16.20
2023-05-20T04:08:20.035Z,16.63
2023-05-20T04:10:46.914Z,15.80
2023-05-20T04:13:14.402Z,14.00
2023-05-20T04:15:42.365Z,13.98
2023-05-20T04:18:12.273Z,14.55
2023-05-20T04:20:41.362Z,13.93
2023-05-20T04:23:09.064Z,12.60
2023-05-20T04:25:36.715Z,16.15
2023-05-20T04:28:04.459Z,14.35
2023-05-20T04:30:33.467Z,14.40
2023-05-20T04:33:03.688Z,14.43
2023-05-20T04:35:31.877Z,13.57
2023-05-20T04:38:03.125Z,15.98
2023-05-20T04:40:30.161Z,15.52
2023-05-20T04:43:00.209Z,12.20
2023-05-20T04:45:27.002Z,19.25
2023-05-20T04:47:53.870Z,17.75
2023-05-20T04:50:21.949Z,15.48
2023-05-20T04:52:49.515Z,11.68
2023-05-20T04:55:16.348Z,15.07
2023-05-20T04:57:43.667Z,18.67
2023-05-20T05:00:12.582Z,15.80
2023-05-20T05:02:40.193Z,15.20
2023-05-20T05:05:07.632Z,16.08
2023-05-20T05:07:34.637Z,11.57
2023-05-20T05:10:01.685Z,14.23
2023-05-20T05:12:30.714Z,16.75
2023-05-20T05:14:58.848Z,14.75
2023-05-20T05:17:26.552Z,12.73
2023-05-20T05:19:53.328Z,14.80
2023-05-20T05:22:20.181Z,16.90
2023-05-20T05:24:46.954Z,12.88
2023-05-20T05:27:14.237Z,16.00
2023-05-20T05:29:41.061Z,13.43
2023-05-20T05:32:07.976Z,19.38
2023-05-20T05:34:34.796Z,15.90
2023-05-20T05:37:01.613Z,16.77
2023-05-20T05:39:28.449Z,13.75
2023-05-20T05:41:56.220Z,12.00
2023-05-20T05:44:23.396Z,12.70
2023-05-20T05:46:50.254Z,13.80
2023-05-20T05:49:17.316Z,12.38
2023-05-20T05:51:44.582Z,12.15
2023-05-20T05:54:12.060Z,13.13
2023-05-20T05:56:39.027Z,14.57
2023-05-20T05:59:06.007Z,13.68
2023-05-20T06:01:33.256Z,13.65
2023-05-20T06:06:27.094Z,13.60
2023-05-20T06:11:21.859Z,10.52
2023-05-20T06:13:49.122Z,14.00
2023-05-20T06:16:16.856Z,11.20
2023-05-20T06:18:44.031Z,11.77
2023-05-20T06:21:11.056Z,8.60
2023-05-20T06:23:38.057Z,11.63
2023-05-20T06:26:09.954Z,12.80
2023-05-20T06:28:37.060Z,10.70
2023-05-20T06:31:03.925Z,12.60
2023-05-20T06:33:33.361Z,9.35
2023-05-20T06:36:05.973Z,11.60
2023-05-20T06:38:32.998Z,10.15
2023-05-20T06:41:00.748Z,12.38
2023-05-20T06:43:27.853Z,16.52
2023-05-20T06:46:04.408Z,11.20
2023-05-20T06:48:36.147Z,11.02
2023-05-20T06:53:30.156Z,10.50
2023-05-20T06:55:57.554Z,9.93
2023-05-20T06:58:24.629Z,10.25
2023-05-20T07:00:53.096Z,11.73
2023-05-20T07:03:20.741Z,9.43
2023-05-20T07:05:48.450Z,8.60
2023-05-20T07:08:19.583Z,14.80
2023-05-20T07:10:46.960Z,9.65
2023-05-20T07:13:18.020Z,10.60
2023-05-20T07:15:48.917Z,11.57
2023-05-20T07:18:17.334Z,9.77
2023-05-20T07:20:49.856Z,10.05
2023-05-20T07:23:29.635Z,8.07
2023-05-20T07:25:57.675Z,6.38
2023-05-20T07:28:25.093Z,6.68
2023-05-20T07:30:52.833Z,11.98
2023-05-20T07:33:25.007Z,8.75
2023-05-20T07:35:54.567Z,12.05
2023-05-20T07:38:22.391Z,8.20
2023-05-20T07:40:56.130Z,9.68
2023-05-20T07:45:49.840Z,6.60
2023-05-20T07:50:43.262Z,6.57
2023-05-20T07:53:11.266Z,10.60
2023-05-20T07:55:39.278Z,7.45
2023-05-20T07:58:06.933Z,7.43
2023-05-20T08:00:35.859Z,6.50
2023-05-20T08:03:08.182Z,7.43
2023-05-20T08:05:55.007Z,7.75
2023-05-20T08:08:22.029Z,9.13
2023-05-20T08:10:55.615Z,9.18
2023-05-20T08:13:25.285Z,7.80
2023-05-20T08:15:55.785Z,6.75
2023-05-20T08:18:24.365Z,9.27
2023-05-20T08:20:51.491Z,9.70
2023-05-20T08:23:18.551Z,9.70
2023-05-20T08:25:46.903Z,8.95
2023-05-20T08:28:14.554Z,10.63
2023-05-20T08:30:41.682Z,11.50
2023-05-20T08:33:09.291Z,6.13
2023-05-20T08:35:38.873Z,7.68
2023-05-20T08:38:05.961Z,8.32
2023-05-20T08:40:35.172Z,9.02
2023-05-20T08:43:02.498Z,8.45
2023-05-20T08:45:33.021Z,13.35
2023-05-20T08:48:05.399Z,7.53
2023-05-20T08:50:32.244Z,8.38
2023-05-20T08:52:59.874Z,7.82
2023-05-20T08:55:36.723Z,6.60
2023-05-20T08:58:04.652Z,9.43
2023-05-20T09:00:32.207Z,8.77
2023-05-20T09:03:01.118Z,5.78
2023-05-20T09:05:28.903Z,11.18
2023-05-20T09:08:11.304Z,11.20
2023-05-20T09:10:42.132Z,10.18
2023-05-20T09:13:10.355Z,12.25
2023-05-20T09:15:37.838Z,7.70
2023-05-20T09:18:07.728Z,8.98
2023-05-20T09:20:37.435Z,9.88
2023-05-20T09:23:09.619Z,7.43
2023-05-20T09:25:37.448Z,9.10
2023-05-20T09:28:08.835Z,6.35
2023-05-20T09:30:35.994Z,7.18
2023-05-20T09:33:05.531Z,7.53
2023-05-20T09:35:37.806Z,7.55
2023-05-20T09:38:07.689Z,10.00
2023-05-20T09:40:37.721Z,6.68
2023-05-20T09:43:08.457Z,7.57
2023-05-20T09:45:36.096Z,6.55
2023-05-20T09:48:04.247Z,9.63
2023-05-20T09:50:32.152Z,7.10
2023-05-20T09:53:03.108Z,9.77
2023-05-20T09:55:31.028Z,10.15
2023-05-20T09:58:02.008Z,8.23
2023-05-20T10:00:29.087Z,8.10
2023-05-20T10:02:57.023Z,9.60
2023-05-20T10:05:28.618Z,9.07
2023-05-20T10:08:20.042Z,11.00
2023-05-20T10:11:12.840Z,10.73
2023-05-20T10:13:57.803Z,6.97
2023-05-20T10:16:52.358Z,6.57
2023-05-20T10:19:19.099Z,6.38
2023-05-20T10:24:30.460Z,9.77
2023-05-20T10:26:58.633Z,9.00
2023-05-20T10:29:25.412Z,5.45
2023-05-20T10:31:53.457Z,7.22
2023-05-20T10:34:22.147Z,8.55
2023-05-20T10:36:54.852Z,6.88
2023-05-20T10:39:34.191Z,7.90
2023-05-20T10:42:11.343Z,8.15
2023-05-20T10:49:48.346Z,5.28
2023-05-20T10:52:17.512Z,6.65
2023-05-20T10:54:47.738Z,7.10
2023-05-20T10:57:16.201Z,6.32
2023-05-20T10:59:43.131Z,20.27
2023-05-20T11:02:12.580Z,6.90
2023-05-20T11:04:39.785Z,5.68
2023-05-20T11:07:06.496Z,5.65
2023-05-20T11:09:37.321Z,6.05
2023-05-20T11:12:04.401Z,6.55
2023-05-20T11:14:31.444Z,10.52
2023-05-20T11:16:59.370Z,7.32
2023-05-20T11:19:27.584Z,7.05
2023-05-20T11:21:55.426Z,6.25
2023-05-20T11:24:26.209Z,5.80
2023-05-20T11:26:57.502Z,6.38
2023-05-20T11:29:26.688Z,5.97
2023-05-20T11:31:53.574Z,7.63
2023-05-20T11:34:25.038Z,5.47
2023-05-20T11:36:58.960Z,9.45
2023-05-20T11:39:30.302Z,6.70
2023-05-20T11:41:58.569Z,6.00
2023-05-20T11:44:26.388Z,7.25
2023-05-20T11:47:00.902Z,5.72
2023-05-20T11:49:28.800Z,5.25
2023-05-20T11:51:57.637Z,7.53
2023-05-20T11:54:25.518Z,9.50
2023-05-20T11:56:55.495Z,7.47
2023-05-20T11:59:25.429Z,6.10
2023-05-20T12:01:53.048Z,6.47
2023-05-20T12:04:20.382Z,10.65
2023-05-20T12:06:47.422Z,6.20
2023-05-20T12:09:14.793Z,9.77
2023-05-20T12:11:42.563Z,6.18
2023-05-20T12:14:09.919Z,5.88
2023-05-20T12:16:38.417Z,6.32
2023-05-20T12:19:06.027Z,7.15
2023-05-20T12:21:33.438Z,8.98
2023-05-20T12:24:01.295Z,5.15
2023-05-20T12:26:29.614Z,5.50
2023-05-20T12:28:57.402Z,7.75
2023-05-20T12:31:26.093Z,5.68
2023-05-20T12:33:53.648Z,6.03
2023-05-20T12:36:21.736Z,7.90
2023-05-20T12:38:48.529Z,5.15
2023-05-20T12:41:15.556Z,7.20
2023-05-20T12:43:43.092Z,6.35
2023-05-20T12:46:09.981Z,5.90
2023-05-20T12:48:37.133Z,6.95
2023-05-20T12:51:04.127Z,5.82
2023-05-20T12:53:30.885Z,6.85
2023-05-20T12:55:57.758Z,5.45
2023-05-20T12:58:24.569Z,5.78
2023-05-20T13:00:51.434Z,6.72
2023-05-20T13:03:18.964Z,6.78
2023-05-20T13:05:45.863Z,8.90
2023-05-20T13:08:14.737Z,8.80
2023-05-20T13:10:41.709Z,5.97
2023-05-20T13:13:08.419Z,6.07
2023-05-20T13:15:35.602Z,7.75
2023-05-20T13:18:03.652Z,6.65
2023-05-20T13:20:30.978Z,11.23
2023-05-20T13:22:58.100Z,9.68
2023-05-20T13:25:24.901Z,7.32
2023-05-20T13:27:51.776Z,5.85
2023-05-20T13:30:18.784Z,7.95
2023-05-20T13:32:46.359Z,6.47
2023-05-20T13:35:14.646Z,6.68
2023-05-20T13:37:41.978Z,6.70
2023-05-20T13:40:09.517Z,7.25
2023-05-20T13:42:36.551Z,6.35
2023-05-20T13:45:03.757Z,10.55
2023-05-20T13:47:30.955Z,19.50
2023-05-20T13:49:57.840Z,6.28
2023-05-20T13:52:24.568Z,7.03
2023-05-20T13:54:54.323Z,7.25
2023-05-20T13:57:21.153Z,7.93
2023-05-20T13:59:47.919Z,7.45
2023-05-20T14:02:14.807Z,7.22
2023-05-20T14:04:44.919Z,6.68
2023-05-20T14:07:11.806Z,7.40
2023-05-20T14:09:38.952Z,7.13
2023-05-20T14:12:06.397Z,10.70
2023-05-20T14:14:33.175Z,8.00
2023-05-20T14:16:59.972Z,7.43
2023-05-20T14:19:27.255Z,8.93
2023-05-20T14:21:54.350Z,9.23
2023-05-20T14:24:23.004Z,6.38
2023-05-20T14:26:50.767Z,8.10
2023-05-20T14:29:17.635Z,7.85
2023-05-20T14:31:44.755Z,7.70
2023-05-20T14:34:11.584Z,6.10
2023-05-20T14:36:38.855Z,7.10
2023-05-20T14:39:05.872Z,7.53
2023-05-20T14:41:32.700Z,8.23
2023-05-20T14:43:59.615Z,5.18
2023-05-20T14:46:26.590Z,9.40
2023-05-20T14:48:54.759Z,8.30
2023-05-20T14:51:21.755Z,8.43
2023-05-20T14:53:48.494Z,9.00
2023-05-20T14:56:15.220Z,6.97
2023-05-20T14:58:42.061Z,6.25
2023-05-20T15:01:09.186Z,8.25
2023-05-20T15:03:36.213Z,12.07
2023-05-20T15:06:03.084Z,10.13
2023-05-20T15:08:29.803Z,21.08
2023-05-20T15:10:56.607Z,7.25
2023-05-20T15:13:23.385Z,7.90
2023-05-20T15:15:50.145Z,9.13
2023-05-20T15:18:16.858Z,9.07
2023-05-20T15:20:44.010Z,7.20
2023-05-20T15:23:11.355Z,6.97
2023-05-20T15:25:38.110Z,8.23
2023-05-20T15:28:04.985Z,10.77
2023-05-20T15:30:31.714Z,7.22
2023-05-20T15:32:58.878Z,7.35
2023-05-20T15:35:25.772Z,9.70
2023-05-20T15:37:53.080Z,9.23
2023-05-20T15:40:19.851Z,10.68
2023-05-20T15:42:47.444Z,14.52
2023-05-20T15:45:14.205Z,7.10
2023-05-20T15:47:41.082Z,9.05
2023-05-20T15:50:08.784Z,28.90
2023-05-20T15:52:35.791Z,12.25
2023-05-20T15:55:03.258Z,8.10
2023-05-20T15:57:30.758Z,17.63
2023-05-20T15:59:57.780Z,19.35
2023-05-20T16:02:25.048Z,22.70
2023-05-20T16:04:52.482Z,23.65
2023-05-20T16:07:19.448Z,19.08
2023-05-20T16:09:46.217Z,21.58
2023-05-20T16:12:13.165Z,13.30
2023-05-20T16:14:39.901Z,9.63
2023-05-20T16:19:33.474Z,12.15
2023-05-20T16:22:00.415Z,8.63
2023-05-20T16:26:53.979Z,13.02
2023-05-20T16:31:47.667Z,14.82
2023-05-20T16:36:41.892Z,12.43
2023-05-20T16:39:08.707Z,10.02
2023-05-20T16:44:02.229Z,9.23
2023-05-20T16:48:55.819Z,6.65
2023-05-20T16:53:49.526Z,11.63
2023-05-20T16:56:16.360Z,14.35
2023-05-20T16:58:43.236Z,9.90
2023-05-20T17:03:36.905Z,11.15
2023-05-20T17:06:03.941Z,10.35
2023-05-20T17:08:30.847Z,10.50
2023-05-20T17:13:26.076Z,15.13
2023-05-20T17:15:52.821Z,11.70
2023-05-20T17:18:19.668Z,9.95
2023-05-20T17:20:46.525Z,11.15
2023-05-20T17:25:41.610Z,12.77
2023-05-20T17:28:08.478Z,9.13
2023-05-20T17:30:35.411Z,12.65
2023-05-20T17:33:02.445Z,15.27
2023-05-20T17:37:56.214Z,9.77
2023-05-20T17:42:49.709Z,14.15
2023-05-20T17:45:16.614Z,11.05
2023-05-20T17:50:10.827Z,10.30
2023-05-20T17:52:37.741Z,10.38
2023-05-20T17:55:04.990Z,11.18
2023-05-20T17:57:31.762Z,10.48
2023-05-20T17:59:58.598Z,9.68
2023-05-20T18:02:25.593Z,13.90
2023-05-20T18:04:52.463Z,18.38
2023-05-20T18:07:19.333Z,11.82
2023-05-20T18:09:46.177Z,13.57
2023-05-20T18:12:12.923Z,16.75
2023-05-20T18:14:39.713Z,11.27
2023-05-20T18:17:06.476Z,12.30
2023-05-20T18:19:33.918Z,17.10
2023-05-20T18:22:02.667Z,12.25
2023-05-20T18:24:29.713Z,17.65
2023-05-20T18:26:57.272Z,14.30
2023-05-20T18:29:25.675Z,11.15
2023-05-20T18:31:52.882Z,14.90
2023-05-20T18:34:19.669Z,16.15
2023-05-20T18:36:46.451Z,19.55
2023-05-20T18:39:15.962Z,15.57
2023-05-20T18:41:47.085Z,13.15
2023-05-20T18:44:18.409Z,10.63
2023-05-20T18:46:46.153Z,13.95
2023-05-20T18:49:12.969Z,10.65
2023-05-20T18:51:40.353Z,14.13
2023-05-20T18:54:08.949Z,9.88
2023-05-20T18:56:35.989Z,12.90
2023-05-20T18:59:03.272Z,16.33
2023-05-20T19:01:30.156Z,12.05
2023-05-20T19:06:23.635Z,11.13
2023-05-20T19:08:50.626Z,13.05
2023-05-20T19:13:44.058Z,8.55
2023-05-20T19:16:11.251Z,11.35
2023-05-20T19:18:38.669Z,9.57
2023-05-20T19:21:05.553Z,13.52
2023-05-20T19:23:32.569Z,11.27
2023-05-20T19:28:26.241Z,9.80
2023-05-20T19:33:20.998Z,9.52
2023-05-20T19:35:48.446Z,11.70
2023-05-20T19:38:15.679Z,9.52
2023-05-20T19:40:44.320Z,11.52
2023-05-20T19:43:11.663Z,13.68
2023-05-20T19:45:39.092Z,11.93
2023-05-20T19:48:06.836Z,12.50
2023-05-20T19:50:34.075Z,11.70
2023-05-20T19:53:06.299Z,10.38
2023-05-20T19:55:35.773Z,12.57
2023-05-20T19:58:03.195Z,13.52
2023-05-20T20:00:30.569Z,13.43
2023-05-20T20:02:58.136Z,18.38
2023-05-20T20:05:26.158Z,12.18
2023-05-20T20:07:53.335Z,11.57
2023-05-20T20:10:20.721Z,13.50
2023-05-20T20:12:47.881Z,14.20
2023-05-20T20:17:46.095Z,17.08
2023-05-20T20:20:14.503Z,12.82
2023-05-20T20:22:42.153Z,14.18
2023-05-20T20:25:09.032Z,12.50
2023-05-20T20:27:36.140Z,15.32
2023-05-20T20:30:03.031Z,13.27
2023-05-20T20:32:30.207Z,11.15
2023-05-20T20:34:58.357Z,14.32
2023-05-20T20:37:26.981Z,14.25
2023-05-20T20:39:56.830Z,12.80
2023-05-20T20:42:24.150Z,12.68
2023-05-20T20:44:55.660Z,16.83
2023-05-20T20:47:23.819Z,15.60
2023-05-20T20:49:50.755Z,14.57
2023-05-20T20:52:17.544Z,14.20
2023-05-20T20:54:44.341Z,13.10
2023-05-20T20:57:11.640Z,15.32
2023-05-20T20:59:38.491Z,22.83
2023-05-20T21:02:06.469Z,14.65
2023-05-20T21:04:33.272Z,15.35
2023-05-20T21:07:01.984Z,16.15
2023-05-20T21:09:29.159Z,16.45
2023-05-20T21:11:57.209Z,19.10
2023-05-20T21:14:24.187Z,15.27
2023-05-20T21:16:51.141Z,22.98
2023-05-20T21:21:44.920Z,14.70
2023-05-20T21:24:11.715Z,17.58
2023-05-20T21:26:38.477Z,15.10
2023-05-20T21:29:06.317Z,16.42
2023-05-20T21:31:33.185Z,21.27
2023-05-20T21:33:59.995Z,18.55
2023-05-20T21:36:26.754Z,18.40
2023-05-20T21:38:53.622Z,16.77
2023-05-20T21:41:21.442Z,14.80
2023-05-20T21:43:48.183Z,14.23
2023-05-20T21:46:15.106Z,18.40
2023-05-20T21:48:42.139Z,13.98
2023-05-20T21:53:35.523Z,15.73
2023-05-20T21:56:02.288Z,12.68
2023-05-20T21:58:29.107Z,14.38
2023-05-20T22:00:55.919Z,17.00
2023-05-20T22:03:22.962Z,17.92
2023-05-20T22:05:49.855Z,16.83
2023-05-20T22:08:19.513Z,13.48
2023-05-20T22:10:47.012Z,17.65
2023-05-20T22:13:13.877Z,16.23
2023-05-20T22:15:40.709Z,16.80
2023-05-20T22:18:07.997Z,13.55
2023-05-20T22:20:35.119Z,14.07
2023-05-20T22:25:28.470Z,16.08
2023-05-20T22:27:55.737Z,14.27
2023-05-20T22:30:22.690Z,14.82
2023-05-20T22:32:49.577Z,14.73
2023-05-20T22:35:16.446Z,15.65
2023-05-20T22:37:43.314Z,19.15
2023-05-20T22:40:10.718Z,15.75
2023-05-20T22:42:37.542Z,16.90
2023-05-20T22:45:04.800Z,14.50
2023-05-20T22:47:31.637Z,15.95
2023-05-20T22:50:02.434Z,15.13
2023-05-20T22:52:29.787Z,15.55
2023-05-20T22:57:24.899Z,16.13
2023-05-20T22:59:52.282Z,15.68
2023-05-20T23:02:19.064Z,14.00
2023-05-20T23:04:45.966Z,19.10
2023-05-20T23:07:14.954Z,16.40
2023-05-20T23:09:41.983Z,16.17
2023-05-20T23:12:08.936Z,15.00
2023-05-20T23:14:35.738Z,17.58
2023-05-20T23:17:02.555Z,16.17
2023-05-20T23:19:29.803Z,15.57
2023-05-20T23:21:56.999Z,15.35
2023-05-20T23:26:51.174Z,16.02
2023-05-20T23:29:17.921Z,18.15
2023-05-20T23:31:44.744Z,17.88
2023-05-20T23:34:11.926Z,17.45
2023-05-20T23:36:42.194Z,17.25
2023-05-20T23:39:09.358Z,15.27
2023-05-20T23:44:03.905Z,15.07
2023-05-20T23:46:31.437Z,18.20
2023-05-20T23:49:00.267Z,20.05
2023-05-20T23:51:28.016Z,19.42
2023-05-20T23:53:55.253Z,16.58
2023-05-20T23:58:49.436Z,17.73
